Time;durP1;ratioP1;P1;durP2;ratioP2;P2;SDS_P1;SDS_P2;PMS_P1;PMS_P2;Temp;Humidity;BMP_temperature;BMP_pressure;BME280_temperature;BME280_humidity;BME280_pressure;Samples;Min_cycle;Max_cycle;Signal;HPM_P1;HPM_P2
2023/08/12 00:00:19;;;;;;;4.63;1.83;;;;;;;;;;5007204;28;20029;-80
2023/08/12 00:02:45;;;;;;;3.78;1.80;;;;;;;;;;4995907;28;20025;-80
2023/08/12 00:05:11;;;;;;;3.53;1.40;;;;;;;;;;4990611;28;20123;-80
2023/08/12 00:07:38;;;;;;;2.35;1.30;;;;;;;;;;4991724;28;20064;-78
2023/08/12 00:10:04;;;;;;;4.70;2.00;;;16.80;99.90;;;;;;4991959;28;20108;-80
2023/08/12 00:12:32;;;;;;;4.85;1.20;;;;;;;;;;4985145;28;20451;-80
2023/08/12 00:14:58;;;;;;;2.75;1.50;;;;;;;;;;4984143;28;20116;-79
2023/08/12 00:17:24;;;;;;;3.70;1.98;;;;;;;;;;4996934;28;20030;-79
2023/08/12 00:19:50;;;;;;;4.63;1.30;;;;;;;;;;5000466;28;20041;-80
2023/08/12 00:22:16;;;;;;;1.63;1.05;;;;;;;;;;4998141;28;20030;-80
2023/08/12 00:24:43;;;;;;;5.93;2.10;;;;;;;;;;5004181;28;20072;-80
2023/08/12 00:27:08;;;;;;;5.80;1.80;;;;;;;;;;5011948;28;20101;-79
2023/08/12 00:29:35;;;;;;;3.17;1.40;;;;;;;;;;5002773;28;20102;-80
2023/08/12 00:32:01;;;;;;;2.97;1.35;;;;;;;;;;5006797;28;20025;-78
2023/08/12 00:34:27;;;;;;;2.13;1.30;;;;;;;;;;5009314;28;20030;-79
2023/08/12 00:36:53;;;;;;;5.57;1.73;;;;;;;;;;5015465;28;20030;-79
2023/08/12 00:39:19;;;;;;;2.72;1.50;;;;;;;;;;5006446;28;20033;-80
2023/08/12 00:41:45;;;;;;;2.42;1.48;;;;;;;;;;5010678;28;20034;-77
2023/08/12 00:44:11;;;;;;;2.28;1.33;;;;;;;;;;5009476;28;20372;-80
2023/08/12 00:46:39;;;;;;;3.92;1.45;;;;;;;;;;5011330;28;20025;-78
2023/08/12 00:49:05;;;;;;;3.17;1.77;;;;;;;;;;4988956;28;20130;-79
2023/08/12 00:51:31;;;;;;;6.65;1.70;;;;;;;;;;5028182;28;20041;-79
2023/08/12 00:53:58;;;;;;;4.07;2.10;;;15.80;99.90;;;;;;5020336;28;20088;-77
2023/08/12 00:56:25;;;;;;;3.70;1.63;;;;;;;;;;5007279;28;20113;-79
2023/08/12 00:58:50;;;;;;;3.83;1.90;;;;;;;;;;5005009;28;20029;-80
2023/08/12 01:01:17;;;;;;;4.85;1.85;;;;;;;;;;5006688;28;20021;-79
2023/08/12 01:03:43;;;;;;;5.63;1.83;;;;;;;;;;5005574;28;20026;-78
2023/08/12 01:06:09;;;;;;;3.15;1.63;;;;;;;;;;5004461;28;20041;-78
2023/08/12 01:08:36;;;;;;;3.00;1.83;;;;;;;;;;5025054;28;20034;-78
2023/08/12 01:11:15;;;;;;;2.60;1.60;;;;;;;;;;5025959;28;20069;-79
2023/08/12 01:13:50;;;;;;;3.15;1.88;;;;;;;;;;4993680;28;20434;-78
2023/08/12 01:16:17;;;;;;;3.38;1.70;;;;;;;;;;5023338;28;20026;-80
2023/08/12 01:18:43;;;;;;;10.10;1.70;;;;;;;;;;5019006;28;20034;-78
2023/08/12 01:21:12;;;;;;;5.25;2.00;;;;;;;;;;5004576;28;20096;-78
2023/08/12 01:23:39;;;;;;;3.65;1.95;;;;;;;;;;5003512;28;20079;-78
2023/08/12 01:26:05;;;;;;;7.22;2.00;;;;;;;;;;5001878;28;20029;-80
2023/08/12 01:28:31;;;;;;;6.75;1.08;;;;;;;;;;5004491;28;20037;-79
2023/08/12 01:30:59;;;;;;;3.97;1.73;;;;;;;;;;4992746;28;20160;-78
2023/08/12 01:33:30;;;;;;;4.30;2.05;;;;;;;;;;5020027;28;20777;-78
2023/08/12 01:36:00;;;;;;;3.58;1.52;;;;;;;;;;5005877;28;20030;-79
2023/08/12 01:38:27;;;;;;;4.35;2.13;;;;;;;;;;4987946;28;20132;-78
2023/08/12 01:40:53;;;;;;;4.28;2.22;;;;;;;;;;5006337;28;20038;-78
2023/08/12 01:43:19;;;;;;;2.72;1.45;;;;;;;;;;5006342;28;20033;-78
2023/08/12 01:45:45;;;;;;;6.85;1.77;;;;;;;;;;4992029;28;20122;-78
2023/08/12 01:48:11;;;;;;;4.32;2.47;;;;;;;;;;4993817;28;20084;-78
2023/08/12 01:50:37;;;;;;;3.38;1.63;;;;;;;;;;4990473;28;20506;-78
2023/08/12 01:53:03;;;;;;;4.63;1.65;;;16.40;99.90;;;;;;5024176;28;20029;-75
2023/08/12 01:55:29;;;;;;;6.35;1.63;;;;;;;;;;5031205;28;20026;-76
2023/08/12 01:57:55;;;;;;;3.25;1.88;;;;;;;;;;5011841;28;20912;-80
2023/08/12 02:00:21;;;;;;;4.35;2.05;;;;;;;;;;5005214;28;20667;-81
2023/08/12 02:02:47;;;;;;;4.40;2.00;;;;;;;;;;5025381;28;20056;-81
2023/08/12 02:05:13;;;;;;;3.70;1.52;;;;;;;;;;5026196;28;20029;-81
2023/08/12 02:07:39;;;;;;;2.28;1.67;;;;;;;;;;5009790;28;20402;-80
2023/08/12 02:10:06;;;;;;;3.33;1.50;;;;;;;;;;5010533;28;20034;-80
2023/08/12 02:12:32;;;;;;;3.25;1.75;;;;;;;;;;4990441;28;20029;-81
2023/08/12 02:14:58;;;;;;;3.38;2.25;;;;;;;;;;4993991;28;20088;-79
2023/08/12 02:17:23;;;;;;;4.00;2.13;;;;;;;;;;5023083;28;20088;-78
2023/08/12 02:19:49;;;;;;;5.35;2.28;;;;;;;;;;5008883;28;20183;-81
2023/08/12 02:22:15;;;;;;;4.47;1.95;;;;;;;;;;5012836;28;20612;-81
2023/08/12 02:24:41;;;;;;;3.20;1.90;;;;;;;;;;5012191;28;20037;-80
2023/08/12 02:27:07;;;;;;;2.22;1.48;;;;;;;;;;5001295;28;20026;-81
2023/08/12 02:29:33;;;;;;;3.78;2.00;;;;;;;;;;5004798;28;20041;-79
2023/08/12 02:31:59;;;;;;;4.70;1.75;;;;;;;;;;4994214;28;20057;-79
2023/08/12 02:34:25;;;;;;;5.75;1.85;;;;;;;;;;5004847;28;20026;-79
2023/08/12 02:36:51;;;;;;;7.57;2.28;;;;;;;;;;5006456;28;20042;-79
2023/08/12 02:39:17;;;;;;;5.10;2.28;;;;;;;;;;5006118;28;20041;-80
2023/08/12 02:41:43;;;;;;;3.35;1.95;;;;;;;;;;5008190;28;20050;-79
2023/08/12 02:44:09;;;;;;;5.82;1.88;;;;;;;;;;5005893;28;20026;-81
2023/08/12 02:46:35;;;;;;;7.65;2.40;;;;;;;;;;5008139;28;20029;-81
2023/08/12 02:49:01;;;;;;;5.20;2.15;;;;;;;;;;4994706;28;20045;-80
2023/08/12 02:51:27;;;;;;;5.45;2.00;;;;;;;;;;5013612;28;20656;-79
2023/08/12 02:53:53;;;;;;;3.90;2.10;;;;;;;;;;5011993;28;20022;-79
2023/08/12 02:56:19;;;;;;;2.88;1.88;;;;;;;;;;5010772;28;20025;-79
2023/08/12 02:58:45;;;;;;;4.47;2.38;;;;;;;;;;5007234;28;20113;-79
2023/08/12 03:01:11;;;;;;;3.35;2.03;;;;;;;;;;5026119;28;20116;-77
2023/08/12 03:03:37;;;;;;;4.03;2.47;;;;;;;;;;5003705;28;20057;-79
2023/08/12 03:06:03;;;;;;;3.95;2.00;;;;;;;;;;4998982;28;21022;-80
2023/08/12 03:08:29;;;;;;;4.28;2.08;;;;;;;;;;5022813;28;20068;-79
2023/08/12 03:10:59;;;;;;;6.70;1.50;;;;;;;;;;5005864;28;20036;-78
2023/08/12 03:13:25;;;;;;;3.90;2.10;;;;;;;;;;5007672;28;20033;-79
2023/08/12 03:15:51;;;;;;;4.15;1.88;;;;;;;;;;5008657;28;20038;-78
2023/08/12 03:18:17;;;;;;;3.85;2.53;;;;;;;;;;4999392;28;20034;-79
2023/08/12 03:20:43;;;;;;;8.38;2.75;;;;;;;;;;4991934;28;20037;-78
2023/08/12 03:23:09;;;;;;;4.53;2.17;;;;;;;;;;4996528;28;20014;-79
2023/08/12 03:25:35;;;;;;;3.80;2.08;;;;;;;;;;5010926;28;20650;-79
2023/08/12 03:28:01;;;;;;;6.95;2.72;;;;;;;;;;4993416;28;20037;-80
2023/08/12 03:30:27;;;;;;;4.43;2.25;;;;;;;;;;5004865;28;20038;-79
2023/08/12 03:32:53;;;;;;;5.03;2.30;;;;;;;;;;5009582;28;21916;-80
2023/08/12 03:35:19;;;;;;;4.13;1.75;;;;;;;;;;5009013;28;20041;-78
2023/08/12 03:37:45;;;;;;;4.43;2.20;;;;;;;;;;5008400;28;20029;-79
2023/08/12 03:40:11;;;;;;;5.20;2.25;;;;;;;;;;5011634;28;20041;-78
2023/08/12 03:42:37;;;;;;;4.80;2.65;;;;;;;;;;5012653;28;20557;-81
2023/08/12 03:45:03;;;;;;;4.65;2.42;;;;;;;;;;4993377;28;20120;-79
2023/08/12 03:47:29;;;;;;;6.45;2.72;;;;;;;;;;5025725;28;20049;-80
2023/08/12 03:49:56;;;;;;;5.30;2.78;;;;;;;;;;5006355;28;20022;-79
2023/08/12 03:52:22;;;;;;;7.18;2.78;;;;;;;;;;5005324;28;20026;-80
2023/08/12 03:54:48;;;;;;;3.45;1.83;;;;;;;;;;5009267;28;20108;-81
2023/08/12 03:57:15;;;;;;;5.47;2.72;;;;;;;;;;5010244;28;20101;-80
2023/08/12 03:59:41;;;;;;;4.53;2.40;;;;;;;;;;4987559;28;20038;-81
2023/08/12 04:02:07;;;;;;;6.30;2.50;;;;;;;;;;5015663;28;20117;-79
2023/08/12 04:04:33;;;;;;;6.70;2.38;;;;;;;;;;4999203;28;20112;-80
2023/08/12 04:06:58;;;;;;;6.85;2.25;;;;;;;;;;5006929;28;20494;-80
2023/08/12 04:09:24;;;;;;;3.88;1.92;;;;;;;;;;5006583;28;20027;-79
2023/08/12 04:11:51;;;;;;;6.35;3.08;;;;;;;;;;5011310;28;20034;-80
2023/08/12 04:14:17;;;;;;;5.00;2.90;;;;;;;;;;5007604;28;20038;-80
2023/08/12 04:16:44;;;;;;;6.68;2.80;;;;;;;;;;5009047;28;20067;-79
2023/08/12 04:19:10;;;;;;;5.53;2.42;;;;;;;;;;5008081;28;20026;-79
2023/08/12 04:21:35;;;;;;;3.97;2.67;;;;;;;;;;5005636;28;20036;-80
2023/08/12 04:24:02;;;;;;;4.18;2.88;;;;;;;;;;5006319;28;20037;-81
2023/08/12 04:26:28;;;;;;;5.97;2.53;;;;;;;;;;5010745;28;20026;-80
2023/08/12 04:28:54;;;;;;;11.00;2.97;;;;;;;;;;5026541;28;20114;-80
2023/08/12 04:31:20;;;;;;;5.38;2.80;;;;;;;;;;5026738;28;20037;-80
2023/08/12 04:33:46;;;;;;;4.13;2.08;;;;;;;;;;5005479;28;20087;-78
2023/08/12 04:36:12;;;;;;;4.93;2.90;;;;;;;;;;5007836;28;20024;-80
2023/08/12 04:38:39;;;;;;;6.20;2.35;;;;;;;;;;5011961;28;20593;-81
2023/08/12 04:41:05;;;;;;;5.18;2.90;;;;;;;;;;5003971;28;20117;-81
2023/08/12 04:43:31;;;;;;;4.78;3.08;;;;;;;;;;4995524;28;20121;-80
2023/08/12 04:45:57;;;;;;;4.85;2.58;;;;;;;;;;5004761;28;20032;-80
2023/08/12 04:48:23;;;;;;;4.60;2.45;;;;;;;;;;4988357;28;20036;-79
2023/08/12 04:50:49;;;;;;;9.15;3.13;;;;;;;;;;5009195;28;20537;-81
2023/08/12 04:53:15;;;;;;;4.85;2.55;;;;;;;;;;5017650;28;20026;-77
2023/08/12 04:55:41;;;;;;;6.55;2.78;;;16.90;99.90;;;;;;5024116;28;20034;-82
2023/08/12 04:58:08;;;;;;;5.15;2.72;;;;;;;;;;5015979;28;20088;-82
2023/08/12 05:00:34;;;;;;;7.20;3.13;;;;;;;;;;5010898;28;20033;-81
2023/08/12 05:03:00;;;;;;;9.85;3.03;;;;;;;;;;5014413;28;20030;-83
2023/08/12 05:05:27;;;;;;;5.22;2.33;;;;;;;;;;5019645;28;20739;-81
2023/08/12 05:07:53;;;;;;;7.07;3.00;;;;;;;;;;5023964;28;20494;-81
2023/08/12 05:10:18;;;;;;;8.18;2.47;;;;;;;;;;5009656;28;20025;-82
2023/08/12 05:12:46;;;;;;;4.22;2.38;;;;;;;;;;5014974;28;20546;-82
2023/08/12 05:15:13;;;;;;;3.65;2.53;;;;;;;;;;5006279;28;20061;-79
2023/08/12 05:17:39;;;;;;;6.57;3.35;;;;;;;;;;5026834;28;20033;-82
2023/08/12 05:20:05;;;;;;;7.38;2.38;;;17.60;99.90;;;;;;5009694;28;20036;-80
2023/08/12 05:22:32;;;;;;;5.35;2.55;;;;;;;;;;5029887;28;20060;-82
2023/08/12 05:24:58;;;;;;;6.82;2.70;;;;;;;;;;5010757;28;20463;-82
2023/08/12 05:27:24;;;;;;;3.65;2.08;;;;;;;;;;5004093;28;20098;-80
2023/08/12 05:29:50;;;;;;;4.40;2.50;;;;;;;;;;5005038;28;20022;-80
2023/08/12 05:32:16;;;;;;;4.32;2.20;;;;;;;;;;5011161;28;20405;-83
2023/08/12 05:34:42;;;;;;;8.45;2.45;;;;;;;;;;5005347;28;20065;-82
2023/08/12 05:37:08;;;;;;;4.97;2.88;;;;;;;;;;5009049;28;20038;-79
2023/08/12 05:39:34;;;;;;;8.48;2.47;;;;;;;;;;5016601;28;20026;-79
2023/08/12 05:42:00;;;;;;;6.47;2.13;;;;;;;;;;5001015;28;20045;-80
2023/08/12 05:44:26;;;;;;;3.10;2.15;;;;;;;;;;4996738;28;20072;-80
2023/08/12 05:46:52;;;;;;;5.25;2.03;;;;;;;;;;4992698;28;20136;-81
2023/08/12 05:49:20;;;;;;;4.90;2.45;;;;;;;;;;5009484;28;20041;-81
2023/08/12 05:51:46;;;;;;;3.95;2.28;;;;;;;;;;4985356;28;20127;-81
2023/08/12 05:54:12;;;;;;;5.40;2.92;;;;;;;;;;4994733;28;20029;-81
2023/08/12 05:56:38;;;;;;;4.07;2.45;;;;;;;;;;5004498;28;20442;-82
2023/08/12 05:59:04;;;;;;;3.85;2.50;;;;;;;;;;4987273;28;20022;-82
2023/08/12 06:01:30;;;;;;;4.95;2.72;;;;;;;;;;4975143;28;20121;-79
2023/08/12 06:03:56;;;;;;;5.68;2.10;;;;;;;;;;4992911;28;20028;-82
2023/08/12 06:06:22;;;;;;;4.28;2.67;;;;;;;;;;4972990;28;20457;-80
2023/08/12 06:08:48;;;;;;;4.00;2.33;;;;;;;;;;4993931;28;20030;-80
2023/08/12 06:11:14;;;;;;;3.78;2.40;;;;;;;;;;5002044;28;20390;-79
2023/08/12 06:13:41;;;;;;;3.97;2.33;;;;;;;;;;4984872;28;21203;-78
2023/08/12 06:16:07;;;;;;;4.60;2.28;;;;;;;;;;5006310;28;20034;-81
2023/08/12 06:18:33;;;;;;;8.52;2.13;;;;;;;;;;4998648;28;20038;-81
2023/08/12 06:20:59;;;;;;;3.72;2.53;;;;;;;;;;4992223;28;20710;-81
2023/08/12 06:23:25;;;;;;;2.70;1.60;;;;;;;;;;4979720;28;20128;-81
2023/08/12 06:25:52;;;;;;;4.55;2.05;;;;;;;;;;5007067;28;20035;-82
2023/08/12 06:28:18;;;;;;;3.58;1.63;;;;;;;;;;5006751;28;20026;-82
2023/08/12 06:30:48;;;;;;;3.25;2.00;;;;;;;;;;4980869;28;20033;-82
2023/08/12 06:33:15;;;;;;;4.18;1.67;;;;;;;;;;5029704;28;20096;-82
2023/08/12 06:35:41;;;;;;;3.15;2.00;;;20.50;99.90;;;;;;4993340;28;20124;-81
2023/08/12 06:38:09;;;;;;;4.55;2.25;;;;;;;;;;4993437;28;20021;-80
2023/08/12 06:40:35;;;;;;;3.88;1.98;;;;;;;;;;4998647;28;20034;-82
2023/08/12 06:43:01;;;;;;;5.05;2.25;;;;;;;;;;5011947;28;20029;-81
2023/08/12 06:45:27;;;;;;;3.30;1.88;;;;;;;;;;5027835;28;20026;-82
2023/08/12 06:47:53;;;;;;;3.22;1.80;;;;;;;;;;5028542;28;20044;-82
2023/08/12 06:50:19;;;;;;;5.88;2.03;;;;;;;;;;5008489;28;20415;-81
2023/08/12 06:52:45;;;;;;;3.88;2.47;;;;;;;;;;4997874;28;20084;-81
2023/08/12 06:55:11;;;;;;;1.98;1.15;;;;;;;;;;5002922;28;20303;-80
2023/08/12 06:57:37;;;;;;;3.88;1.88;;;;;;;;;;5003995;28;20030;-81
2023/08/12 07:00:05;;;;;;;7.75;1.90;;;20.60;99.90;;;;;;5011006;28;20044;-81
2023/08/12 07:02:31;;;;;;;3.53;1.67;;;;;;;;;;5007983;28;20026;-82
2023/08/12 07:04:57;;;;;;;3.67;1.95;;;;;;;;;;5010268;28;20458;-79
2023/08/12 07:07:23;;;;;;;3.03;1.63;;;;;;;;;;5009372;28;20148;-79
2023/08/12 07:09:49;;;;;;;4.40;2.47;;;;;;;;;;5020411;28;20033;-81
2023/08/12 07:12:15;;;;;;;3.42;1.52;;;;;;;;;;5004674;28;20629;-82
2023/08/12 07:14:41;;;;;;;4.22;1.80;;;;;;;;;;5000174;28;20041;-79
2023/08/12 07:17:07;;;;;;;4.70;2.35;;;;;;;;;;5000326;28;20038;-80
2023/08/12 07:19:33;;;;;;;3.17;1.83;;;;;;;;;;4986343;28;20065;-81
2023/08/12 07:21:59;;;;;;;4.18;2.55;;;;;;;;;;4995313;28;20978;-79
2023/08/12 07:24:25;;;;;;;2.63;1.35;;;;;;;;;;5012264;28;20045;-81
2023/08/12 07:26:51;;;;;;;2.58;1.67;;;;;;;;;;5015456;28;20397;-81
2023/08/12 07:29:17;;;;;;;1.58;1.13;;;;;;;;;;5009178;28;20045;-82
2023/08/12 07:31:43;;;;;;;2.92;1.55;;;;;;;;;;4985143;28;20580;-82
2023/08/12 07:34:12;;;;;;;7.60;1.88;;;;;;;;;;5010025;28;20034;-82
2023/08/12 07:36:38;;;;;;;3.67;1.70;;;;;;;;;;5003994;28;20049;-82
2023/08/12 07:39:05;;;;;;;3.65;1.70;;;;;;;;;;5011758;28;20132;-81
2023/08/12 07:41:30;;;;;;;5.03;1.85;;;;;;;;;;5019187;28;20026;-81
2023/08/12 07:43:56;;;;;;;5.82;1.65;;;;;;;;;;5018850;28;20037;-83
2023/08/12 07:46:23;;;;;;;4.22;2.13;;;;;;;;;;5001700;28;20109;-82
2023/08/12 07:48:49;;;;;;;4.00;1.48;;;;;;;;;;5003687;28;20026;-82
2023/08/12 07:51:15;;;;;;;3.08;1.55;;;;;;;;;;4990811;28;20037;-79
2023/08/12 07:53:41;;;;;;;2.85;1.83;;;;;;;;;;4996086;28;20030;-78
2023/08/12 07:56:07;;;;;;;3.20;1.75;;;;;;;;;;5024410;28;20094;-82
2023/08/12 07:58:33;;;;;;;2.35;1.38;;;;;;;;;;4995632;28;20044;-81
2023/08/12 08:00:58;;;;;;;2.88;1.52;;;23.90;99.90;;;;;;5007277;28;20033;-84
2023/08/12 08:03:24;;;;;;;3.22;1.75;;;;;;;;;;5003093;28;20030;-82
2023/08/12 08:05:50;;;;;;;2.75;1.52;;;;;;;;;;5019561;28;20026;-83
2023/08/12 08:08:16;;;;;;;2.35;1.40;;;;;;;;;;5025675;28;20026;-79
2023/08/12 08:10:42;;;;;;;3.72;2.00;;;;;;;;;;4991927;28;20030;-81
2023/08/12 08:13:08;;;;;;;3.47;2.03;;;;;;;;;;4984639;28;20056;-78
2023/08/12 08:15:34;;;;;;;6.78;2.20;;;25.10;99.90;;;;;;4987186;28;20798;-81
2023/08/12 08:18:01;;;;;;;2.25;1.75;;;;;;;;;;4982078;28;20034;-80
2023/08/12 08:20:27;;;;;;;4.38;1.80;;;;;;;;;;5002349;28;20674;-81
2023/08/12 08:22:55;;;;;;;3.40;1.65;;;;;;;;;;5020354;28;20030;-81
2023/08/12 08:25:21;;;;;;;3.08;1.88;;;;;;;;;;5003630;28;20040;-82
2023/08/12 08:27:47;;;;;;;5.03;2.30;;;;;;;;;;5000251;28;20080;-81
2023/08/12 08:30:13;;;;;;;3.13;1.90;;;;;;;;;;5016841;28;20034;-81
2023/08/12 08:32:39;;;;;;;6.00;2.17;;;;;;;;;;5010446;28;20030;-82
2023/08/12 08:35:05;;;;;;;2.92;1.60;;;;;;;;;;4984956;28;20494;-79
2023/08/12 08:37:31;;;;;;;3.25;1.77;;;;;;;;;;5018590;28;20030;-80
2023/08/12 08:39:57;;;;;;;2.45;1.67;;;;;;;;;;4991090;28;20052;-80
2023/08/12 08:42:24;;;;;;;5.78;1.70;;;28.50;99.90;;;;;;5000194;28;20478;-80
2023/08/12 08:44:53;;;;;;;4.50;1.55;;;;;;;;;;5007340;28;20030;-81
2023/08/12 08:47:26;;;;;;;2.03;1.30;;;;;;;;;;5001819;28;20037;-81
2023/08/12 08:49:53;;;;;;;3.90;1.88;;;;;;;;;;5003499;28;20116;-82
2023/08/12 08:52:19;;;;;;;3.55;1.77;;;;;;;;;;5025222;28;20402;-79
2023/08/12 08:54:45;;;;;;;5.15;1.90;;;;;;;;;;4991163;28;20036;-81
2023/08/12 08:57:12;;;;;;;2.85;1.50;;;;;;;;;;5006329;28;20445;-83
2023/08/12 08:59:38;;;;;;;3.67;1.45;;;;;;;;;;5004602;28;20042;-82
2023/08/12 09:02:05;;;;;;;6.82;1.27;;;;;;;;;;5007154;28;20041;-79
2023/08/12 09:04:31;;;;;;;3.75;1.83;;;;;;;;;;5009758;28;20033;-79
2023/08/12 09:06:58;;;;;;;3.30;1.60;;;;;;;;;;5024921;28;20064;-80
2023/08/12 09:09:25;;;;;;;5.60;1.23;;;;;;;;;;5006924;28;20049;-82
2023/08/12 09:11:52;;;;;;;3.38;1.73;;;;;;;;;;5011454;28;20398;-82
2023/08/12 09:14:18;;;;;;;5.68;1.58;;;;;;;;;;4998487;28;20037;-83
2023/08/12 09:16:44;;;;;;;4.18;1.67;;;;;;;;;;4985108;28;20038;-82
2023/08/12 09:19:10;;;;;;;4.18;1.10;;;;;;;;;;5008430;28;20398;-83
2023/08/12 09:21:36;;;;;;;1.48;0.90;;;;;;;;;;5020880;28;20038;-82
2023/08/12 09:24:05;;;;;;;1.83;1.02;;;;;;;;;;4998384;28;20030;-83
2023/08/12 09:26:31;;;;;;;3.92;1.70;;;;;;;;;;5024068;28;20037;-83
2023/08/12 09:29:00;;;;;;;2.55;1.33;;;;;;;;;;5000786;28;20890;-84
2023/08/12 09:31:30;;;;;;;4.10;1.65;;;;;;;;;;5000459;28;20083;-84
2023/08/12 09:34:00;;;;;;;6.50;1.35;;;;;;;;;;5016975;28;20393;-82
2023/08/12 09:36:29;;;;;;;3.53;1.25;;;;;;;;;;5002124;28;20030;-82
2023/08/12 09:38:55;;;;;;;1.95;1.20;;;;;;;;;;4992048;28;20463;-82
2023/08/12 09:41:23;;;;;;;3.33;1.67;;;;;;;;;;5010972;28;20064;-84
2023/08/12 09:43:52;;;;;;;2.92;1.70;;;;;;;;;;4986638;28;20026;-82
2023/08/12 09:46:21;;;;;;;2.97;2.03;;;;;;;;;;5006087;28;20034;-83
2023/08/12 09:48:47;;;;;;;3.88;1.55;;;;;;;;;;5018378;28;20079;-82
2023/08/12 09:51:13;;;;;;;3.22;1.70;;;;;;;;;;4998565;28;20038;-84
2023/08/12 09:53:41;;;;;;;3.03;2.05;;;;;;;;;;5016042;28;20411;-82
2023/08/12 09:56:08;;;;;;;4.78;1.88;;;;;;;;;;4986017;28;20164;-80
2023/08/12 09:58:36;;;;;;;4.82;2.10;;;;;;;;;;4999969;28;20034;-81
2023/08/12 10:01:02;;;;;;;3.78;2.30;;;;;;;;;;5003490;28;20026;-83
2023/08/12 10:03:29;;;;;;;3.58;1.75;;;;;;;;;;4993552;28;20030;-84
2023/08/12 10:05:56;;;;;;;4.72;2.00;;;;;;;;;;5002368;28;20025;-82
2023/08/12 10:08:25;;;;;;;2.00;1.50;;;;;;;;;;4992487;28;20136;-83
2023/08/12 10:10:51;;;;;;;3.08;1.80;;;;;;;;;;4995580;28;20061;-82
2023/08/12 10:13:18;;;;;;;2.88;1.63;;;;;;;;;;4995163;28;20034;-82
2023/08/12 10:15:46;;;;;;;3.03;1.70;;;;;;;;;;4993813;28;20616;-82
2023/08/12 10:18:13;;;;;;;2.25;1.48;;;;;;;;;;4999963;28;20049;-83
2023/08/12 10:20:39;;;;;;;5.10;1.95;;;;;;;;;;4996419;28;20033;-80
2023/08/12 10:23:05;;;;;;;2.80;1.42;;;;;;;;;;4987828;28;20972;-79
2023/08/12 10:25:34;;;;;;;2.20;1.60;;;;;;;;;;4965168;28;20030;-82
2023/08/12 10:28:00;;;;;;;3.10;1.63;;;;;;;;;;4997012;28;20014;-84
2023/08/12 10:30:28;;;;;;;2.67;1.35;;;;;;;;;;4986091;28;20509;-82
2023/08/12 10:32:54;;;;;;;5.97;1.75;;;;;;;;;;4990745;28;20451;-81
2023/08/12 10:35:20;;;;;;;2.35;1.40;;;;;;;;;;4986593;28;20038;-83
2023/08/12 10:37:49;;;;;;;4.82;1.90;;;;;;;;;;4983654;28;20344;-80
2023/08/12 10:40:23;;;;;;;2.63;1.40;;;;;;;;;;4967872;28;20108;-82
2023/08/12 10:42:49;;;;;;;2.70;1.40;;;;;;;;;;4988893;28;20040;-80
2023/08/12 10:45:16;;;;;;;3.72;1.92;;;;;;;;;;4991064;28;20398;-83
2023/08/12 10:47:43;;;;;;;6.80;2.20;;;;;;;;;;4994004;28;20467;-83
2023/08/12 10:50:19;;;;;;;4.05;1.58;;;;;;;;;;4997458;28;20029;-83
2023/08/12 10:52:45;;;;;;;2.58;1.23;;;;;;;;;;4986667;28;20030;-81
2023/08/12 10:55:24;;;;;;;7.00;1.95;;;;;;;;;;4996425;28;20022;-83
2023/08/12 10:57:51;;;;;;;3.05;1.80;;;;;;;;;;4997032;28;20046;-84
2023/08/12 11:00:21;;;;;;;2.63;1.30;;;;;;;;;;4991913;28;20026;-82
2023/08/12 11:02:50;;;;;;;2.80;1.65;;;;;;;;;;4987920;28;20422;-84
2023/08/12 11:05:16;;;;;;;2.40;1.23;;;;;;;;;;4995528;28;20022;-83
2023/08/12 11:07:43;;;;;;;1.65;1.10;;;;;;;;;;5001962;28;20051;-79
2023/08/12 11:10:19;;;;;;;2.42;1.15;;;;;;;;;;5012166;28;20025;-78
2023/08/12 11:12:51;;;;;;;2.20;1.30;;;;;;;;;;5005820;28;20061;-82
2023/08/12 11:15:18;;;;;;;2.95;1.33;;;;;;;;;;5019485;28;20038;-83
2023/08/12 11:17:46;;;;;;;2.45;1.30;;;;;;;;;;4998392;28;20483;-81
2023/08/12 11:20:13;;;;;;;2.75;1.40;;;;;;;;;;4969886;28;20037;-81
2023/08/12 11:22:43;;;;;;;2.38;1.33;;;;;;;;;;4964719;28;20030;-82
2023/08/12 11:25:10;;;;;;;4.07;1.05;;;;;;;;;;4995472;28;20026;-79
2023/08/12 11:27:40;;;;;;;3.03;1.00;;;;;;;;;;5001260;28;20030;-84
2023/08/12 11:30:06;;;;;;;1.45;0.68;;;;;;;;;;4979900;28;20038;-80
2023/08/12 11:32:32;;;;;;;4.00;1.45;;;;;;;;;;5003127;28;20038;-82
2023/08/12 11:34:58;;;;;;;2.13;1.00;;;;;;;;;;5016830;28;20026;-84
2023/08/12 11:37:24;;;;;;;2.22;1.50;;;;;;;;;;5004743;28;20277;-81
2023/08/12 11:39:52;;;;;;;2.90;1.10;;;;;;;;;;4974764;28;20054;-83
2023/08/12 11:42:18;;;;;;;2.75;1.40;;;;;;;;;;4978962;28;20032;-82
2023/08/12 11:44:44;;;;;;;3.90;1.25;;;;;;;;;;4973817;28;21071;-82
2023/08/12 11:47:10;;;;;;;4.00;1.10;;;;;;;;;;4990948;28;20470;-81
2023/08/12 11:49:37;;;;;;;2.83;1.40;;;;;;;;;;4983050;28;20063;-81
2023/08/12 11:52:04;;;;;;;1.77;1.17;;;;;;;;;;4990699;28;20037;-82
2023/08/12 11:54:31;;;;;;;2.72;1.23;;;;;;;;;;4995558;28;20441;-81
2023/08/12 11:56:57;;;;;;;3.40;1.80;;;;;;;;;;5001432;28;20045;-81
2023/08/12 11:59:23;;;;;;;2.80;1.45;;;;;;;;;;4987670;28;20030;-82
2023/08/12 12:01:49;;;;;;;5.97;1.52;;;;;;;;;;4974798;28;20103;-83
2023/08/12 12:04:16;;;;;;;2.47;1.25;;;;;;;;;;4986154;28;20248;-81
2023/08/12 12:06:42;;;;;;;3.28;1.40;;;;;;;;;;4969612;28;20121;-83
2023/08/12 12:09:09;;;;;;;2.80;1.40;;;;;;;;;;5015641;28;20076;-82
2023/08/12 12:11:39;;;;;;;2.67;1.38;;;;;;;;;;4971891;28;20532;-80
2023/08/12 12:14:05;;;;;;;3.38;1.88;;;;;;;;;;4994783;28;20022;-79
2023/08/12 12:16:44;;;;;;;3.20;1.40;;;;;;;;;;4973409;28;20470;-83
2023/08/12 12:19:17;;;;;;;2.63;1.50;;;;;;;;;;4994752;28;20311;-83
2023/08/12 12:21:45;;;;;;;2.17;1.25;;;;;;;;;;4995212;28;20045;-83
2023/08/12 12:24:11;;;;;;;2.97;1.27;;;;;;;;;;5006271;28;20100;-83
2023/08/12 12:26:37;;;;;;;2.83;1.15;;;;;;;;;;5006157;28;20037;-81
2023/08/12 12:29:04;;;;;;;2.58;1.30;;;;;;;;;;4998958;28;20095;-80
2023/08/12 12:31:32;;;;;;;2.33;1.40;;;;;;;;;;5002015;28;20475;-82
2023/08/12 12:33:58;;;;;;;5.78;1.65;;;;;;;;;;4983100;28;20090;-81
2023/08/12 12:36:24;;;;;;;2.78;1.40;;;;;;;;;;5004667;28;21666;-81
2023/08/12 12:38:50;;;;;;;2.95;1.25;;;;;;;;;;4989768;28;20030;-81
2023/08/12 12:41:16;;;;;;;6.35;1.58;;;;;;;;;;4983479;28;20034;-81
2023/08/12 12:43:42;;;;;;;3.83;1.75;;;;;;;;;;4985839;28;20076;-80
2023/08/12 12:46:08;;;;;;;4.68;1.60;;;;;;;;;;5009017;28;20991;-82
2023/08/12 12:48:34;;;;;;;3.50;1.65;;;;;;;;;;5006903;28;20067;-80
2023/08/12 12:51:00;;;;;;;2.53;1.40;;;;;;;;;;5007284;28;20057;-83
2023/08/12 12:53:26;;;;;;;4.40;1.73;;;;;;;;;;4994043;28;20034;-82
2023/08/12 12:55:52;;;;;;;3.30;1.38;;;;;;;;;;5002803;28;20513;-81
2023/08/12 12:58:18;;;;;;;3.85;1.23;;;;;;;;;;5013082;28;20014;-82
2023/08/12 13:00:44;;;;;;;11.07;3.70;;;;;;;;;;5007709;28;20117;-85
2023/08/12 13:03:10;;;;;;;8.40;3.33;;;;;;;;;;5009195;28;20077;-81
2023/08/12 13:05:36;;;;;;;4.88;1.85;;;;;;;;;;4988359;28;20030;-82
2023/08/12 13:08:02;;;;;;;5.65;2.05;;;;;;;;;;5006251;28;20026;-83
2023/08/12 13:10:28;;;;;;;8.07;3.45;;;;;;;;;;5010456;28;20034;-82
2023/08/12 13:12:54;;;;;;;4.13;2.72;;;;;;;;;;5008158;28;20040;-83
2023/08/12 13:15:20;;;;;;;4.18;2.60;;;;;;;;;;4984731;28;20041;-82
2023/08/12 13:17:46;;;;;;;8.48;2.33;;;;;;;;;;5022446;28;20042;-82
2023/08/12 13:20:12;;;;;;;9.55;2.30;;;;;;;;;;4986539;28;20026;-80
2023/08/12 13:22:38;;;;;;;3.75;1.90;;;;;;;;;;5022382;28;20482;-80
2023/08/12 13:25:04;;;;;;;8.55;2.88;;;;;;;;;;5020479;28;20394;-80
2023/08/12 13:27:30;;;;;;;5.47;3.25;;;;;;;;;;4988854;28;20491;-79
2023/08/12 13:29:56;;;;;;;6.05;3.05;;;;;;;;;;4990243;28;20100;-79
2023/08/12 13:32:22;;;;;;;15.85;3.35;;;;;;;;;;4992043;28;20018;-81
2023/08/12 13:34:48;;;;;;;4.72;3.33;;;;;;;;;;5010102;28;20064;-82
2023/08/12 13:37:14;;;;;;;7.75;2.67;;;;;;;;;;5025473;28;20566;-81
2023/08/12 13:39:40;;;;;;;6.30;2.60;;;;;;;;;;4997825;28;20057;-81
2023/08/12 13:42:06;;;;;;;9.10;3.45;;;;;;;;;;5006490;28;20026;-79
2023/08/12 13:44:32;;;;;;;5.32;3.25;;;;;;;;;;5004598;28;20065;-84
2023/08/12 13:46:58;;;;;;;7.00;3.38;;;;;;;;;;5004589;28;20037;-81
2023/08/12 13:49:24;;;;;;;11.30;3.08;;;;;;;;;;4992824;28;20057;-81
2023/08/12 13:51:51;;;;;;;4.95;2.97;;;;;;;;;;5004986;28;20072;-80
2023/08/12 13:54:17;;;;;;;11.18;3.25;;;;;;;;;;5004663;28;20421;-81
2023/08/12 13:56:42;;;;;;;6.70;3.60;;;;;;;;;;4989916;28;20026;-79
2023/08/12 13:59:08;;;;;;;10.55;3.03;;;;;;;;;;5009891;28;20514;-81
2023/08/12 14:01:34;;;;;;;5.53;2.85;;;;;;;;;;4989887;28;20471;-81
2023/08/12 14:04:00;;;;;;;9.35;3.08;;;;;;;;;;5023169;28;20037;-81
2023/08/12 14:06:26;;;;;;;6.30;2.85;;;;;;;;;;4983046;28;20121;-80
2023/08/12 14:08:52;;;;;;;5.78;3.13;;;;;;;;;;5004038;28;20033;-81
2023/08/12 14:11:20;;;;;;;12.57;3.67;;;;;;;;;;5010198;28;20030;-81
2023/08/12 14:13:46;;;;;;;3.45;2.42;;;;;;;;;;5024323;28;20037;-81
2023/08/12 14:16:12;;;;;;;8.48;2.47;;;;;;;;;;5009350;28;20036;-80
2023/08/12 14:18:38;;;;;;;3.55;2.35;;;;;;;;;;5018953;28;20056;-77
2023/08/12 14:21:04;;;;;;;7.57;2.67;;;;;;;;;;5016829;28;20030;-81
2023/08/12 14:23:30;;;;;;;5.72;2.78;;;;;;;;;;5033305;28;20026;-82
2023/08/12 14:25:56;;;;;;;2.75;1.75;;;;;;;;;;5014650;28;20082;-82
2023/08/12 14:28:22;;;;;;;3.92;2.45;;;;;;;;;;5014711;28;20026;-82
2023/08/12 14:30:48;;;;;;;4.28;1.90;;;;;;;;;;5015630;28;20083;-82
2023/08/12 14:33:14;;;;;;;5.07;2.38;;;;;;;;;;5026980;28;20551;-82